Nearby METAR Reports

 

KTOP - Billard Municipal Airport, Topeka, Kansas, USA
Updated: 05/23/2018 6:53am
Mist, Clear
Mist, Clear
 Wind from calm
Wind: Calm
Temperature: 66°F , 19°C
Dew Point: 66°F , 19°C
Humidity: 100%
Barometer: 30.06 inHg , 1017.9 hPa
Summary: Mist
Clouds: Clear
Visibility: 6 miles , 10 km
2018/05/23 11:53 KTOP 231153Z 00000KT 6SM BR CLR 19/19 A3006 RMK AO2 SLP170 T01890189 10211 20178 53014
KFOE - Forbes Field Airport, Topeka, Kansas, USA
Updated: 05/23/2018 6:53am
Mist, Clear
Mist, Clear
 Wind from calm
Wind: Calm
Temperature: 66°F , 19°C
Dew Point: 66°F , 19°C
Humidity: 100%
Barometer: 30.07 inHg , 1018.3 hPa
Summary: Mist
Clouds: Clear
Visibility: 6 miles , 10 km
2018/05/23 11:53 KFOE 231153Z 00000KT 6SM BR CLR 19/19 A3007 RMK AO2 SLP171 T01940189 10222 20178 53015